createdAt,value
2022-08-28T00:00:59.313Z,101920.47
2022-08-28T00:03:30.533Z,101901.53
2022-08-28T00:06:00.247Z,101924.28
2022-08-28T00:08:31.834Z,101915.56
2022-08-28T00:11:01.063Z,101917.34
2022-08-28T00:13:30.691Z,101909.19
2022-08-28T00:16:03.325Z,101921.69
2022-08-28T00:18:33.602Z,101927.69
2022-08-28T00:21:03.461Z,101829.91
2022-08-28T00:23:42.513Z,101906.44
2022-08-28T00:26:33.890Z,101922.22
2022-08-28T00:29:02.535Z,101933.59
2022-08-28T00:31:31.784Z,101912.84
2022-08-28T00:34:03.420Z,101920.06
2022-08-28T00:36:33.039Z,101925.28
2022-08-28T00:39:06.102Z,101922.75
2022-08-28T00:41:41.201Z,101929.63
2022-08-28T00:44:14.070Z,101926.88
2022-08-28T00:46:45.016Z,101914.25
2022-08-28T00:49:18.230Z,101932.97
2022-08-28T00:52:06.067Z,101934.16
2022-08-28T00:54:38.899Z,101932.13
2022-08-28T00:57:15.618Z,101937.16
2022-08-28T00:59:45.324Z,101938.78
2022-08-28T01:02:17.626Z,101945.03
2022-08-28T01:04:50.937Z,101938.63
2022-08-28T01:07:23.580Z,101940.41
2022-08-28T01:09:55.849Z,101933.38
2022-08-28T01:12:33.274Z,101928.06
2022-08-28T01:15:10.933Z,101926.31
2022-08-28T01:17:47.514Z,101929.75
2022-08-28T01:20:22.686Z,101926.38
2022-08-28T01:23:00.697Z,101917.97
2022-08-28T01:25:35.237Z,101908.66
2022-08-28T01:28:13.052Z,101931.63
2022-08-28T01:30:45.125Z,101919.72
2022-08-28T01:33:16.062Z,101935.25
2022-08-28T01:35:49.224Z,101926.59
2022-08-28T01:38:20.246Z,101926.25
2022-08-28T01:40:57.435Z,101916.66
2022-08-28T01:43:30.637Z,101920.91
2022-08-28T01:46:03.288Z,101928.72
2022-08-28T01:48:36.202Z,101926.09
2022-08-28T01:51:06.640Z,101923.88
2022-08-28T01:53:36.350Z,101922.91
2022-08-28T01:56:12.402Z,101922.81
2022-08-28T01:58:43.101Z,101927.16
2022-08-28T02:01:14.764Z,101921.50
2022-08-28T02:03:44.295Z,101926.50
2022-08-28T02:06:18.876Z,101923.88
2022-08-28T02:08:50.098Z,101932.81
2022-08-28T02:11:22.615Z,101920.72
2022-08-28T02:13:54.313Z,101940.47
2022-08-28T02:16:26.187Z,101936.38
2022-08-28T02:18:56.017Z,101945.34
2022-08-28T02:21:25.515Z,101951.44
2022-08-28T02:23:55.462Z,101949.28
2022-08-28T02:26:26.957Z,101947.56
2022-08-28T02:28:56.772Z,101947.66
2022-08-28T02:31:26.864Z,101935.03
2022-08-28T02:33:56.618Z,101944.31
2022-08-28T02:36:26.121Z,101946.44
2022-08-28T02:38:57.863Z,101931.97
2022-08-28T02:41:28.961Z,101934.72
2022-08-28T02:43:58.525Z,101940.69
2022-08-28T02:46:28.018Z,101940.25
2022-08-28T02:48:57.683Z,101949.03
2022-08-28T02:51:27.596Z,101922.59
2022-08-28T02:53:59.955Z,101946.69
2022-08-28T02:56:31.191Z,101921.63
2022-08-28T02:59:00.256Z,101930.47
2022-08-28T03:01:29.745Z,101953.09
2022-08-28T03:03:59.085Z,101956.59
2022-08-28T03:06:28.554Z,101952.06
2022-08-28T03:08:57.632Z,101959.81
2022-08-28T03:11:27.910Z,101960.63
2022-08-28T03:14:03.351Z,101957.94
2022-08-28T03:16:34.440Z,101956.59
2022-08-28T03:19:05.109Z,101965.16
2022-08-28T03:21:34.656Z,101953.69
2022-08-28T03:24:04.433Z,101952.78
2022-08-28T03:26:33.809Z,101920.25
2022-08-28T03:29:06.977Z,101953.41
2022-08-28T03:31:36.621Z,101956.97
2022-08-28T03:34:06.318Z,101954.19
2022-08-28T03:36:35.636Z,101946.81
2022-08-28T03:39:07.560Z,101955.09
2022-08-28T03:41:37.048Z,101954.97
2022-08-28T03:44:08.356Z,101962.69
2022-08-28T03:46:37.824Z,101959.25
2022-08-28T03:49:07.486Z,101962.50
2022-08-28T03:51:37.181Z,101960.59
2022-08-28T03:54:07.231Z,101874.38
2022-08-28T03:56:36.969Z,101966.59
2022-08-28T03:59:08.634Z,101888.09
2022-08-28T04:01:39.267Z,101981.41
2022-08-28T04:04:11.689Z,102004.22
2022-08-28T04:06:41.685Z,101903.44
2022-08-28T04:09:11.123Z,101976.97
2022-08-28T04:11:43.281Z,101975.88
2022-08-28T04:14:16.558Z,101979.28
2022-08-28T04:16:46.073Z,101972.19
2022-08-28T04:19:15.657Z,101995.16
2022-08-28T04:21:44.836Z,101878.56
2022-08-28T04:24:14.424Z,101989.28
2022-08-28T04:26:45.165Z,101984.09
2022-08-28T04:29:14.296Z,101988.63
2022-08-28T04:31:44.867Z,101992.19
2022-08-28T04:34:14.513Z,101985.94
2022-08-28T04:36:43.782Z,101986.81
2022-08-28T04:39:13.551Z,101987.66
2022-08-28T04:41:42.965Z,101992.91
2022-08-28T04:44:12.707Z,101981.00
2022-08-28T04:46:42.885Z,101972.47
2022-08-28T04:49:17.014Z,101994.28
2022-08-28T04:51:46.995Z,101994.03
2022-08-28T04:54:19.352Z,101989.28
2022-08-28T04:56:49.562Z,101991.66
2022-08-28T04:59:19.023Z,101981.75
2022-08-28T05:01:48.589Z,101999.69
2022-08-28T05:04:21.663Z,102000.53
2022-08-28T05:06:50.868Z,101988.00
2022-08-28T05:09:21.715Z,102002.97
2022-08-28T05:11:52.477Z,102002.38
2022-08-28T05:14:22.502Z,101992.06
2022-08-28T05:16:54.012Z,102013.28
2022-08-28T05:19:29.209Z,102015.78
2022-08-28T05:21:58.375Z,102012.25
2022-08-28T05:24:27.598Z,102010.25
2022-08-28T05:26:57.438Z,102013.81
2022-08-28T05:29:27.199Z,102016.28
2022-08-28T05:31:59.566Z,102015.44
2022-08-28T05:34:31.733Z,102012.84
2022-08-28T05:37:00.908Z,102023.81
2022-08-28T05:39:30.596Z,102028.94
2022-08-28T05:42:00.524Z,102033.16
2022-08-28T05:44:30.123Z,102026.91
2022-08-28T05:46:59.214Z,102025.94
2022-08-28T05:49:29.698Z,102031.09
2022-08-28T05:51:59.064Z,102031.53
2022-08-28T05:54:29.198Z,102029.50
2022-08-28T05:56:58.757Z,102037.06
2022-08-28T05:59:28.232Z,102026.00
2022-08-28T06:02:03.559Z,102032.06
2022-08-28T06:04:36.556Z,101958.81
2022-08-28T06:07:06.705Z,102008.91
2022-08-28T06:09:39.661Z,102028.19
2022-08-28T06:12:09.499Z,102032.22
2022-08-28T06:14:41.273Z,102037.25
2022-08-28T06:17:10.522Z,102021.66
2022-08-28T06:19:41.844Z,102002.16
2022-08-28T06:22:14.993Z,102032.56
2022-08-28T06:24:44.621Z,102034.94
2022-08-28T06:27:14.265Z,102041.69
2022-08-28T06:29:43.843Z,102045.16
2022-08-28T06:32:13.830Z,102039.53
2022-08-28T06:34:44.741Z,102037.66
2022-08-28T06:37:13.804Z,102033.13
2022-08-28T06:39:43.146Z,102043.25
2022-08-28T06:42:12.239Z,102044.63
2022-08-28T06:44:41.726Z,102027.22
2022-08-28T06:47:11.173Z,101977.56
2022-08-28T06:49:40.546Z,102045.53
2022-08-28T06:52:11.096Z,102040.63
2022-08-28T06:54:40.027Z,102055.00
2022-08-28T06:57:14.798Z,102031.59
2022-08-28T06:59:44.086Z,102048.53
2022-08-28T07:02:13.699Z,102053.47
2022-08-28T07:04:42.646Z,102059.31
2022-08-28T07:07:31.232Z,102056.78
2022-08-28T07:10:02.510Z,102059.88
2022-08-28T07:12:31.946Z,102054.44
2022-08-28T07:15:01.706Z,102055.47
2022-08-28T07:17:30.597Z,102055.41
2022-08-28T07:19:59.420Z,102051.91
2022-08-28T07:22:30.083Z,102063.47
2022-08-28T07:24:59.289Z,102064.56
2022-08-28T07:27:28.101Z,102058.56
2022-08-28T07:29:56.877Z,102062.34
2022-08-28T07:32:26.263Z,102066.75
2022-08-28T07:34:57.176Z,102071.53
2022-08-28T07:37:27.209Z,102048.69
2022-08-28T07:39:57.245Z,102072.28
2022-08-28T07:42:43.650Z,102073.78
2022-08-28T07:45:12.388Z,102072.00
2022-08-28T07:47:43.477Z,102069.75
2022-08-28T07:50:12.692Z,102073.13
2022-08-28T07:52:41.858Z,102070.53
2022-08-28T07:55:12.646Z,102078.56
2022-08-28T07:57:43.319Z,102070.78
2022-08-28T08:00:13.358Z,102082.38
2022-08-28T08:02:42.356Z,102076.03
2022-08-28T08:05:11.691Z,102078.25
2022-08-28T08:07:43.715Z,102075.22
2022-08-28T08:10:14.962Z,102077.88
2022-08-28T08:12:49.119Z,102061.84
2022-08-28T08:15:21.360Z,102078.06
2022-08-28T08:17:50.446Z,102088.78
2022-08-28T08:20:21.036Z,102096.72
2022-08-28T08:22:49.965Z,102065.34
2022-08-28T08:25:20.162Z,102082.41
2022-08-28T08:27:49.104Z,102099.56
2022-08-28T08:30:18.110Z,102100.63
2022-08-28T08:32:46.886Z,102095.94
2022-08-28T08:35:17.618Z,102097.81
2022-08-28T08:37:47.021Z,102093.25
2022-08-28T08:40:19.619Z,102090.44
2022-08-28T08:42:57.193Z,102086.44
2022-08-28T08:45:27.516Z,102079.97
2022-08-28T08:47:57.840Z,102079.50
2022-08-28T08:50:29.644Z,102088.81
2022-08-28T08:53:13.835Z,102083.06
2022-08-28T08:55:46.117Z,102085.84
2022-08-28T08:58:26.966Z,102072.66
2022-08-28T09:01:02.677Z,102075.91
2022-08-28T09:03:45.793Z,102083.66
2022-08-28T09:06:26.941Z,102080.94
2022-08-28T09:09:00.935Z,102090.81
2022-08-28T09:11:42.419Z,102091.19
2022-08-28T09:14:21.647Z,102090.13
2022-08-28T09:16:57.708Z,102092.03
2022-08-28T09:19:27.063Z,102091.56
2022-08-28T09:21:56.381Z,102088.50
2022-08-28T09:24:28.530Z,102090.66
2022-08-28T09:27:00.282Z,102083.25
2022-08-28T09:29:34.013Z,102038.16
2022-08-28T09:32:23.530Z,102081.19
2022-08-28T09:35:07.780Z,102080.16
2022-08-28T09:37:38.329Z,102061.97
2022-08-28T09:40:23.569Z,102079.34
2022-08-28T09:43:21.847Z,102078.81
2022-08-28T09:45:59.446Z,102076.25
2022-08-28T09:48:35.764Z,102071.19
2022-08-28T09:51:08.002Z,102079.47
2022-08-28T09:53:42.922Z,102092.63
2022-08-28T09:56:18.903Z,102082.34
2022-08-28T09:58:52.418Z,102082.56
2022-08-28T10:01:51.436Z,102087.84
2022-08-28T10:04:39.282Z,102072.72
2022-08-28T10:07:15.618Z,102077.53
2022-08-28T10:09:59.650Z,102086.97
2022-08-28T10:12:43.431Z,102088.09
2022-08-28T10:15:18.933Z,102078.13
2022-08-28T10:18:12.082Z,102078.78
2022-08-28T10:20:51.206Z,102087.41
2022-08-28T10:23:33.920Z,102079.06
2022-08-28T10:26:17.196Z,102063.91
2022-08-28T10:28:58.583Z,102072.97
2022-08-28T10:31:38.583Z,102069.84
2022-08-28T10:34:26.911Z,102068.19
2022-08-28T10:37:03.946Z,102065.91
2022-08-28T10:39:47.430Z,102070.09
2022-08-28T10:42:35.859Z,102058.81
2022-08-28T10:45:09.664Z,102065.81
2022-08-28T10:47:42.978Z,102066.13
2022-08-28T10:50:19.546Z,102079.44
2022-08-28T10:52:54.971Z,102071.47
2022-08-28T10:55:32.438Z,102085.50
2022-08-28T10:58:06.029Z,102078.84
2022-08-28T11:00:56.434Z,102076.34
2022-08-28T11:03:35.810Z,102078.16
2022-08-28T11:06:11.770Z,102074.63
2022-08-28T11:08:41.873Z,102072.31
2022-08-28T11:11:15.625Z,102076.75
2022-08-28T11:13:53.730Z,102055.03
2022-08-28T11:16:25.329Z,102076.97
2022-08-28T11:19:15.975Z,102083.28
2022-08-28T11:21:55.435Z,102089.81
2022-08-28T11:24:44.145Z,102092.22
2022-08-28T11:27:29.637Z,102090.03
2022-08-28T11:30:05.418Z,102088.53
2022-08-28T11:32:57.435Z,102087.06
2022-08-28T11:35:40.754Z,102070.63
2022-08-28T11:38:14.813Z,102083.91
2022-08-28T11:40:58.064Z,102083.06
2022-08-28T11:43:40.327Z,102079.44
2022-08-28T11:46:25.317Z,102082.00
2022-08-28T11:48:57.229Z,102074.59
2022-08-28T11:51:46.338Z,102084.38
2022-08-28T11:54:31.132Z,102080.78
2022-08-28T11:57:09.137Z,102084.75
2022-08-28T12:00:01.429Z,102080.75
2022-08-28T12:02:53.291Z,102081.66
2022-08-28T12:05:45.497Z,102067.22
2022-08-28T12:08:55.076Z,102083.47
2022-08-28T12:11:58.609Z,102083.91
2022-08-28T12:15:07.755Z,102084.63
2022-08-28T12:17:51.391Z,102086.66
2022-08-28T12:20:26.387Z,102081.94
2022-08-28T12:22:57.920Z,102084.34
2022-08-28T12:25:33.879Z,102082.44
2022-08-28T12:28:17.155Z,102082.81
2022-08-28T12:30:59.005Z,102079.03
2022-08-28T12:33:36.494Z,102082.38
2022-08-28T12:36:17.124Z,102086.38
2022-08-28T12:38:52.532Z,102090.19
2022-08-28T12:41:24.542Z,102089.28
2022-08-28T12:43:59.558Z,102061.41
2022-08-28T12:46:33.304Z,102098.63
2022-08-28T12:49:06.454Z,102095.34
2022-08-28T12:51:38.777Z,102091.09
2022-08-28T12:54:10.655Z,102097.97
2022-08-28T12:56:40.383Z,102008.53
2022-08-28T12:59:34.183Z,102089.91
2022-08-28T13:02:04.187Z,102087.06
2022-08-28T13:04:35.917Z,102085.97
2022-08-28T13:07:10.821Z,102087.44
2022-08-28T13:09:47.817Z,102075.16
2022-08-28T13:12:23.981Z,102081.78
2022-08-28T13:15:14.931Z,102062.34
2022-08-28T13:17:55.084Z,102063.47
2022-08-28T13:20:31.020Z,102044.78
2022-08-28T13:23:00.675Z,102074.50
2022-08-28T13:25:37.266Z,102067.16
2022-08-28T13:28:14.389Z,102067.72
2022-08-28T13:30:58.195Z,102065.66
2022-08-28T13:33:28.233Z,102070.88
2022-08-28T13:35:57.453Z,102072.91
2022-08-28T13:38:26.770Z,102066.06
2022-08-28T13:40:59.907Z,102068.13
2022-08-28T13:43:32.351Z,102061.97
2022-08-28T13:46:02.840Z,102062.06
2022-08-28T13:48:32.285Z,102072.31
2022-08-28T13:51:10.396Z,102068.34
2022-08-28T13:53:40.504Z,102046.47
2022-08-28T13:56:10.018Z,102068.66
2022-08-28T13:58:39.191Z,102061.31
2022-08-28T14:01:11.282Z,102067.81
2022-08-28T14:03:39.583Z,102038.38
2022-08-28T14:06:12.118Z,102036.53
2022-08-28T14:08:43.650Z,102057.16
2022-08-28T14:11:15.493Z,102051.28
2022-08-28T14:13:55.345Z,102057.69
2022-08-28T14:16:27.491Z,102046.69
2022-08-28T14:18:57.183Z,102042.25
2022-08-28T14:21:26.684Z,102055.50
2022-08-28T14:23:56.507Z,102062.00
2022-08-28T14:26:25.616Z,102062.00
2022-08-28T14:28:55.812Z,102066.00
2022-08-28T14:31:27.044Z,102059.59
2022-08-28T14:33:56.286Z,102066.16
2022-08-28T14:36:28.679Z,102071.34
2022-08-28T14:39:05.406Z,102067.09
2022-08-28T14:41:36.529Z,102057.13
2022-08-28T14:44:06.735Z,102067.09
2022-08-28T14:46:38.829Z,102054.22
2022-08-28T14:49:10.993Z,102062.53
2022-08-28T14:51:42.697Z,102061.28
2022-08-28T14:54:16.096Z,102068.31
2022-08-28T14:56:45.770Z,102062.63
2022-08-28T14:59:23.974Z,102059.97
2022-08-28T15:02:00.403Z,102060.69
2022-08-28T15:04:34.869Z,102065.47
2022-08-28T15:07:06.828Z,102067.00
2022-08-28T15:09:38.535Z,102059.59
2022-08-28T15:12:08.083Z,102057.56
2022-08-28T15:14:37.622Z,102053.50
2022-08-28T15:17:11.854Z,102051.53
2022-08-28T15:19:41.233Z,102041.31
2022-08-28T15:22:10.962Z,102039.19
2022-08-28T15:24:40.898Z,102045.03
2022-08-28T15:27:11.981Z,102041.50
2022-08-28T15:29:42.234Z,102042.00
2022-08-28T15:32:12.873Z,102047.44
2022-08-28T15:34:43.549Z,102046.91
2022-08-28T15:37:13.481Z,102042.69
2022-08-28T15:40:00.577Z,102047.41
2022-08-28T15:42:30.086Z,102039.69
2022-08-28T15:44:59.874Z,102043.66
2022-08-28T15:47:32.298Z,102046.88
2022-08-28T15:50:07.991Z,102041.13
2022-08-28T15:52:41.003Z,102039.53
2022-08-28T15:55:12.209Z,102036.41
2022-08-28T15:57:41.774Z,102040.63
2022-08-28T16:00:12.525Z,102045.94
2022-08-28T16:02:43.345Z,102044.06
2022-08-28T16:05:13.155Z,102035.09
2022-08-28T16:07:42.518Z,102048.16
2022-08-28T16:10:13.870Z,102039.75
2022-08-28T16:12:43.404Z,102039.41
2022-08-28T16:15:21.096Z,102033.28
2022-08-28T16:17:52.911Z,102033.28
2022-08-28T16:20:23.041Z,102030.59
2022-08-28T16:22:53.176Z,102035.50
2022-08-28T16:25:22.591Z,102031.28
2022-08-28T16:27:52.633Z,102035.28
2022-08-28T16:30:24.482Z,102040.63
2022-08-28T16:32:55.477Z,102052.28
2022-08-28T16:35:24.918Z,102043.13
2022-08-28T16:37:54.274Z,102048.72
2022-08-28T16:40:24.614Z,102049.16
2022-08-28T16:42:56.815Z,102042.31
2022-08-28T16:45:26.319Z,102046.13
2022-08-28T16:47:56.884Z,102037.94
2022-08-28T16:50:31.804Z,102053.59
2022-08-28T16:53:04.900Z,102047.13
2022-08-28T16:55:37.262Z,102039.41
2022-08-28T16:58:07.241Z,102045.31
2022-08-28T17:00:44.303Z,102054.97
2022-08-28T17:03:26.572Z,102053.53
2022-08-28T17:05:57.822Z,102056.41
2022-08-28T17:08:27.174Z,102049.50
2022-08-28T17:10:58.297Z,102053.13
2022-08-28T17:13:27.562Z,102058.81
2022-08-28T17:15:56.903Z,102058.50
2022-08-28T17:18:27.592Z,102056.56
2022-08-28T17:21:16.117Z,102059.00
2022-08-28T17:23:46.746Z,102054.34
2022-08-28T17:26:16.964Z,102054.28
2022-08-28T17:28:46.870Z,102073.00
2022-08-28T17:31:16.707Z,102053.56
2022-08-28T17:33:50.003Z,101949.81
2022-08-28T17:36:32.744Z,102055.00
2022-08-28T17:39:03.634Z,102041.06
2022-08-28T17:41:33.735Z,102048.22
2022-08-28T17:44:03.412Z,102051.66
2022-08-28T17:46:37.412Z,101968.94
2022-08-28T17:49:10.333Z,102040.75
2022-08-28T17:51:43.565Z,102047.28
2022-08-28T17:54:16.889Z,101948.16
2022-08-28T17:56:47.859Z,102053.59
2022-08-28T17:59:18.733Z,102051.50
2022-08-28T18:01:50.093Z,102056.88
2022-08-28T18:04:24.591Z,102049.81
2022-08-28T18:06:55.122Z,102054.34
2022-08-28T18:09:25.825Z,102022.72
2022-08-28T18:11:55.488Z,102052.88
2022-08-28T18:14:25.273Z,102051.13
2022-08-28T18:16:56.793Z,102047.53
2022-08-28T18:19:27.754Z,102026.31
2022-08-28T18:21:57.138Z,102047.78
2022-08-28T18:24:27.105Z,102050.91
2022-08-28T18:26:57.615Z,102045.25
2022-08-28T18:29:27.587Z,102054.22
2022-08-28T18:31:58.078Z,102044.88
2022-08-28T18:34:31.929Z,102041.38
2022-08-28T18:37:03.193Z,102051.75
2022-08-28T18:39:33.322Z,102055.50
2022-08-28T18:42:03.434Z,102046.84
2022-08-28T18:44:33.386Z,102062.69
2022-08-28T18:47:03.492Z,102062.31
2022-08-28T18:49:34.568Z,102062.88
2022-08-28T18:52:04.781Z,102059.19
2022-08-28T18:54:35.029Z,102053.25
2022-08-28T18:57:08.031Z,102068.44
2022-08-28T18:59:40.804Z,102068.16
2022-08-28T19:02:10.971Z,102077.56
2022-08-28T19:04:44.942Z,102075.09
2022-08-28T19:07:16.153Z,102079.91
2022-08-28T19:09:46.715Z,102078.75
2022-08-28T19:12:16.169Z,102076.56
2022-08-28T19:14:46.266Z,101955.41
2022-08-28T19:17:20.928Z,102059.56
2022-08-28T19:19:54.632Z,102077.28
2022-08-28T19:22:25.148Z,102078.91
2022-08-28T19:24:58.491Z,102093.56
2022-08-28T19:27:28.991Z,102093.56
2022-08-28T19:30:00.297Z,102093.47
2022-08-28T19:32:31.539Z,101972.53
2022-08-28T19:35:04.742Z,102098.38
2022-08-28T19:37:34.631Z,102103.19
2022-08-28T19:40:09.628Z,102100.72
2022-08-28T19:42:40.038Z,102104.13
2022-08-28T19:45:10.919Z,102097.88
2022-08-28T19:47:40.321Z,102104.28
2022-08-28T19:50:15.019Z,102109.56
2022-08-28T19:52:45.849Z,102076.56
2022-08-28T19:55:18.583Z,102097.88
2022-08-28T19:57:49.560Z,102112.16
2022-08-28T20:00:23.160Z,102110.44
2022-08-28T20:02:53.422Z,102112.59
2022-08-28T20:05:25.918Z,102019.97
2022-08-28T20:07:55.508Z,102114.28
2022-08-28T20:10:24.622Z,102109.38
2022-08-28T20:12:54.676Z,102114.00
2022-08-28T20:15:24.166Z,102131.47
2022-08-28T20:17:53.279Z,102128.72
2022-08-28T20:20:29.792Z,102119.53
2022-08-28T20:22:59.453Z,102130.09
2022-08-28T20:25:28.506Z,102129.94
2022-08-28T20:28:01.417Z,102122.97
2022-08-28T20:30:31.423Z,102136.03
2022-08-28T20:33:01.284Z,102132.13
2022-08-28T20:35:31.705Z,102134.84
2022-08-28T20:38:03.442Z,102020.59
2022-08-28T20:40:33.703Z,102138.91
2022-08-28T20:43:04.329Z,102139.28
2022-08-28T20:45:34.628Z,102134.53
2022-08-28T20:48:06.936Z,102150.50
2022-08-28T20:50:41.510Z,102143.34
2022-08-28T20:53:10.512Z,102155.00
2022-08-28T20:55:39.887Z,102149.81
2022-08-28T20:58:13.445Z,102160.44
2022-08-28T21:00:43.455Z,102152.88
2022-08-28T21:03:12.952Z,102156.13
2022-08-28T21:05:47.678Z,102166.47
2022-08-28T21:08:19.613Z,102182.28
2022-08-28T21:10:49.247Z,102164.53
2022-08-28T21:13:18.875Z,102170.53
2022-08-28T21:15:49.693Z,102151.84
2022-08-28T21:18:19.310Z,102166.03
2022-08-28T21:20:50.011Z,102166.88
2022-08-28T21:23:19.538Z,102172.72
2022-08-28T21:25:49.575Z,102159.00
2022-08-28T21:28:19.690Z,102170.19
2022-08-28T21:30:49.400Z,102179.66
2022-08-28T21:33:18.991Z,102178.06
2022-08-28T21:35:49.938Z,102181.09
2022-08-28T21:38:19.096Z,102174.38
2022-08-28T21:40:51.477Z,102176.31
2022-08-28T21:43:21.094Z,102184.22
2022-08-28T21:45:59.299Z,102179.31
2022-08-28T21:48:29.818Z,102182.63
2022-08-28T21:51:00.584Z,102174.13
2022-08-28T21:53:31.566Z,102172.44
2022-08-28T21:56:04.287Z,102161.16
2022-08-28T21:58:34.619Z,102168.75
2022-08-28T22:01:04.763Z,102163.34
2022-08-28T22:03:34.808Z,102174.56
2022-08-28T22:06:10.710Z,102180.25
2022-08-28T22:08:40.929Z,102176.78
2022-08-28T22:11:11.143Z,102182.28
2022-08-28T22:13:41.870Z,102176.94
2022-08-28T22:16:16.007Z,102188.31
2022-08-28T22:18:45.586Z,102175.66
2022-08-28T22:21:42.678Z,102100.16
2022-08-28T22:24:13.950Z,102189.50
2022-08-28T22:26:45.072Z,102184.38
2022-08-28T22:29:14.646Z,102185.16
2022-08-28T22:31:46.357Z,102191.31
2022-08-28T22:34:17.356Z,102186.06
2022-08-28T22:36:51.463Z,102181.22
2022-08-28T22:39:20.822Z,102165.84
2022-08-28T22:41:50.000Z,102175.19
2022-08-28T22:44:21.575Z,102166.75
2022-08-28T22:46:51.311Z,102179.84
2022-08-28T22:49:20.991Z,102178.88
2022-08-28T22:51:52.190Z,102188.63
2022-08-28T22:54:24.816Z,102147.88
2022-08-28T22:56:55.396Z,102179.75
2022-08-28T22:59:26.869Z,102174.41
2022-08-28T23:01:59.187Z,102168.31
2022-08-28T23:04:29.340Z,102172.72
2022-08-28T23:07:00.837Z,102170.31
2022-08-28T23:09:29.968Z,102178.56
2022-08-28T23:12:00.281Z,102176.31
2022-08-28T23:14:29.809Z,102170.59
2022-08-28T23:17:00.165Z,102161.13
2022-08-28T23:19:30.806Z,102167.09
2022-08-28T23:22:02.109Z,102157.31
2022-08-28T23:24:31.619Z,102170.59
2022-08-28T23:27:19.356Z,102170.91
2022-08-28T23:29:53.184Z,102170.81
2022-08-28T23:32:23.392Z,102172.84
2022-08-28T23:34:53.655Z,102168.28
2022-08-28T23:37:25.255Z,102169.13
2022-08-28T23:39:54.825Z,102166.69
2022-08-28T23:42:24.469Z,102164.69
2022-08-28T23:44:56.044Z,102168.03
2022-08-28T23:47:25.643Z,102173.28
2022-08-28T23:49:55.215Z,102166.66
2022-08-28T23:52:28.814Z,102161.03
2022-08-28T23:54:58.974Z,102163.75
2022-08-28T23:57:28.993Z,102166.09
2022-08-28T23:59:59.044Z,102129.25
